Time;durP1;ratioP1;P1;durP2;ratioP2;P2;SDS_P1;SDS_P2;PMS_P1;PMS_P2;Temp;Humidity;BMP_temperature;BMP_pressure;BME280_temperature;BME280_humidity;BME280_pressure;Samples;Min_cycle;Max_cycle;Signal;HPM_P1;HPM_P2
2021/11/02 00:01:26;;;;;;;7.28;3.30;;;;;;;9.80;82.75;99839.53;4993435;28;20121;-53
2021/11/02 00:03:54;;;;;;;7.20;3.70;;;;;;;9.82;82.19;99840.06;4993262;28;20453;-52
2021/11/02 00:06:23;;;;;;;6.18;3.42;;;;;;;9.80;82.57;99828.66;4993655;28;20084;-55
2021/11/02 00:08:50;;;;;;;7.55;3.88;;;;;;;9.81;82.59;99846.63;4993641;28;20093;-54
2021/11/02 00:11:18;;;;;;;8.15;3.83;;;;;;;9.82;82.22;99852.88;4993880;28;20573;-52
2021/11/02 00:13:51;;;;;;;8.07;3.58;;;;;;;9.77;81.96;99845.56;4995881;28;20494;-48
2021/11/02 00:16:22;;;;;;;8.07;3.53;;;;;;;9.71;82.17;99854.06;5009098;28;20046;-49
2021/11/02 00:19:01;;;;;;;10.02;3.85;;;;;;;9.69;82.40;99857.09;4993281;28;20121;-54
2021/11/02 00:21:34;;;;;;;8.65;3.97;;;;;;;9.68;82.73;99852.72;4993385;28;20046;-52
2021/11/02 00:24:14;;;;;;;7.35;3.63;;;;;;;9.66;82.43;99854.91;4993149;28;20494;-55
2021/11/02 00:26:43;;;;;;;8.32;3.88;;;;;;;9.59;82.03;99846.28;4993845;28;20066;-53
2021/11/02 00:29:11;;;;;;;9.50;4.20;;;;;;;9.53;82.49;99847.44;4993234;28;20133;-54
2021/11/02 00:31:40;;;;;;;10.25;3.95;;;;;;;9.50;82.71;99845.25;4992906;28;20497;-52
2021/11/02 00:34:08;;;;;;;8.75;3.65;;;;;;;9.49;82.55;99840.94;4992123;28;20129;-49
2021/11/02 00:36:36;;;;;;;8.77;3.90;;;;;;;9.46;82.85;99846.94;4993549;28;20078;-49
2021/11/02 00:39:04;;;;;;;8.25;3.70;;;;;;;9.44;82.64;99849.94;4993608;28;20445;-48
2021/11/02 00:41:31;;;;;;;9.30;3.85;;;;;;;9.42;82.98;99846.69;4991693;28;20108;-50
2021/11/02 00:43:59;;;;;;;7.25;3.67;;;;;;;9.42;82.65;99852.13;4993006;28;20457;-49
2021/11/02 00:46:36;;;;;;;9.48;4.00;;;;;;;9.39;82.96;99853.50;4992592;28;20054;-52
2021/11/02 00:49:07;;;;;;;8.32;4.15;;;;;;;9.35;82.67;99857.88;4992705;28;20140;-54
2021/11/02 00:51:35;;;;;;;7.82;3.47;;;;;;;9.30;83.22;99854.38;4993296;28;20057;-51
2021/11/02 00:54:03;;;;;;;8.45;3.85;;;;;;;9.29;82.95;99850.06;4992946;28;20541;-53
2021/11/02 00:56:30;;;;;;;7.10;3.47;;;;;;;9.24;83.12;99855.53;4992472;28;20046;-52
2021/11/02 00:58:58;;;;;;;9.23;3.60;;;;;;;9.18;83.14;99854.75;4992598;28;20065;-51
2021/11/02 01:01:25;;;;;;;8.75;3.50;;;;;;;9.16;83.66;99848.78;4992582;28;20489;-54
2021/11/02 01:03:53;;;;;;;7.15;3.40;;;;;;;9.15;83.71;99841.72;4992586;28;20034;-53
2021/11/02 01:06:21;;;;;;;10.05;3.50;;;;;;;9.17;84.05;99839.53;4991500;28;20080;-51
2021/11/02 01:08:48;;;;;;;7.38;3.25;;;;;;;9.22;84.08;99846.84;4992913;28;20061;-52
2021/11/02 01:11:17;;;;;;;8.98;3.75;;;;;;;9.21;83.70;99843.31;4991404;28;20034;-54
2021/11/02 01:13:45;;;;;;;9.45;3.38;;;;;;;9.22;83.70;99844.94;4992453;28;20096;-53
2021/11/02 01:16:13;;;;;;;7.95;3.10;;;;;;;9.24;83.77;99841.94;4992497;28;20049;-52
2021/11/02 01:18:41;;;;;;;7.35;3.33;;;;;;;9.23;83.60;99849.28;4992059;28;20042;-55
2021/11/02 01:21:09;;;;;;;7.25;3.50;;;;;;;9.22;83.87;99847.66;4992738;28;20054;-53
2021/11/02 01:23:37;;;;;;;7.20;3.03;;;;;;;9.23;83.67;99843.84;4992747;28;20057;-55
2021/11/02 01:26:05;;;;;;;10.82;3.72;;;;;;;9.23;83.49;99852.00;4992359;28;20052;-52
2021/11/02 01:28:33;;;;;;;8.13;3.50;;;;;;;9.18;83.75;99846.59;4991751;28;20049;-52
2021/11/02 01:31:00;;;;;;;6.82;2.88;;;;;;;9.15;83.40;99852.59;5006676;28;20397;-48
2021/11/02 01:33:30;;;;;;;8.55;3.80;;;;;;;9.15;83.60;99852.59;4991266;28;20055;-55
2021/11/02 01:35:58;;;;;;;6.88;3.03;;;;;;;9.12;83.44;99842.31;4992267;28;20545;-51
2021/11/02 01:38:27;;;;;;;8.40;3.40;;;;;;;9.09;83.60;99842.84;4990488;28;20050;-53
2021/11/02 01:41:05;;;;;;;5.57;3.00;;;;;;;9.07;83.37;99845.06;4991512;28;20065;-52
2021/11/02 01:43:34;;;;;;;6.20;2.75;;;;;;;9.04;83.95;99842.88;4991137;28;20505;-53
2021/11/02 01:46:02;;;;;;;7.15;3.00;;;;;;;8.98;83.27;99835.88;4994565;28;20137;-51
2021/11/02 01:48:35;;;;;;;5.35;2.97;;;;;;;8.91;83.67;99831.56;4998916;28;20457;-54
2021/11/02 01:51:02;;;;;;;11.85;3.30;;;;;;;8.87;83.98;99835.91;4975761;28;20050;-53
2021/11/02 01:53:35;;;;;;;5.30;2.80;;;;;;;8.84;84.47;99841.91;4991608;28;20098;-51
2021/11/02 01:56:03;;;;;;;7.50;3.10;;;;;;;8.79;84.65;99836.53;4991193;28;20038;-52
2021/11/02 01:58:33;;;;;;;9.25;2.92;;;;;;;8.74;85.21;99841.97;4991341;28;20046;-48
2021/11/02 02:01:03;;;;;;;5.63;2.75;;;;;;;8.76;84.84;99839.81;4990866;28;20047;-51
2021/11/02 02:04:06;;;;;;;6.78;2.70;;;;;;;8.78;85.31;99842.22;4991451;28;20458;-51
2021/11/02 02:07:03;;;;;;;6.90;2.80;;;;;;;8.83;85.28;99834.06;4990904;28;20050;-52
2021/11/02 02:09:53;;;;;;;6.03;2.92;;;;;;;8.84;84.58;99841.91;4978768;28;20121;-52
2021/11/02 02:12:41;;;;;;;4.95;2.60;;;;;;;8.83;84.85;99839.50;4987560;28;20051;-52
2021/11/02 02:15:18;;;;;;;6.15;3.00;;;;;;;8.85;85.09;99843.56;4997743;28;20046;-53
2021/11/02 02:18:14;;;;;;;8.55;3.20;;;;;;;8.87;85.02;99840.53;4994472;28;20046;-52
2021/11/02 02:21:09;;;;;;;6.65;2.42;;;;;;;8.88;84.66;99843.00;4985226;28;20043;-52
2021/11/02 02:24:03;;;;;;;5.45;2.50;;;;;;;8.92;85.02;99835.91;4995188;28;20100;-51
2021/11/02 02:27:05;;;;;;;5.80;2.78;;;;;;;8.91;84.61;99833.47;5010862;28;20038;-53
2021/11/02 02:29:37;;;;;;;8.48;2.97;;;;;;;8.91;85.07;99819.88;4977682;28;20061;-53
2021/11/02 02:32:10;;;;;;;5.63;2.55;;;;;;;8.89;84.38;99822.88;4995277;28;20125;-48
2021/11/02 02:34:40;;;;;;;6.68;2.80;;;;;;;8.88;84.80;99829.41;4994630;28;20097;-50
2021/11/02 02:37:09;;;;;;;5.63;2.65;;;;;;;8.86;84.87;99825.34;4994094;28;20100;-51
2021/11/02 02:39:37;;;;;;;7.22;3.28;;;;;;;8.86;84.81;99825.34;4994783;28;20097;-51
2021/11/02 02:42:11;;;;;;;5.75;2.72;;;;;;;8.85;84.81;99816.41;5008240;28;20042;-52
2021/11/02 02:44:46;;;;;;;6.28;2.80;;;;;;;8.85;84.53;99816.41;4978128;28;20138;-53
2021/11/02 02:47:17;;;;;;;8.23;2.85;;;;;;;8.84;84.72;99824.81;4978073;28;20466;-52
2021/11/02 02:49:47;;;;;;;5.28;2.70;;;;;;;8.83;84.75;99815.88;5004527;28;20050;-52
2021/11/02 02:52:16;;;;;;;5.47;2.35;;;;;;;8.77;84.01;99802.59;5010556;28;20047;-54
2021/11/02 02:54:49;;;;;;;5.70;2.70;;;;;;;8.65;85.17;99808.34;4993702;28;20043;-55
2021/11/02 02:57:23;;;;;;;6.65;2.70;;;;;;;8.59;84.82;99804.88;4978028;28;20046;-48
2021/11/02 02:59:54;;;;;;;6.43;2.88;;;;;;;8.59;85.58;99801.34;4988812;28;20046;-49
2021/11/02 03:02:25;;;;;;;8.25;2.47;;;;;;;8.63;85.43;99799.66;4978316;28;20050;-52
2021/11/02 03:04:54;;;;;;;6.93;2.88;;;;;;;8.60;85.69;99797.53;4976017;28;20043;-53
2021/11/02 03:07:23;;;;;;;7.18;3.03;;;;;;;8.61;85.05;99810.00;4989474;28;20074;-52
2021/11/02 03:09:57;;;;;;;3.63;2.38;;;;;;;8.59;85.12;99806.78;4994143;28;20393;-53
2021/11/02 03:12:29;;;;;;;5.18;2.50;;;;;;;8.57;85.87;99800.81;4993963;28;20553;-53
2021/11/02 03:17:59;;;;;;;5.18;2.85;;;;;;;8.53;85.63;99806.78;4994791;28;20506;-53
2021/11/02 03:48:33;;;;;;;7.13;2.38;;;;;;;8.35;86.17;99815.53;4953152;28;20047;-52
2021/11/02 03:51:15;;;;;;;4.40;2.45;;;;;;;8.39;85.71;99813.06;4940658;29;20047;-52
2021/11/02 04:22:15;;;;;;;8.98;3.22;;;;;;;8.39;85.92;99811.16;4987293;28;20489;-52
2021/11/02 04:27:53;;;;;;;4.45;2.28;;;;;;;8.33;86.25;99815.00;4899894;29;20147;-52
2021/11/02 05:06:32;;;;;;;6.10;2.17;;;;;;;8.34;86.98;99824.75;4901226;29;20427;-50
2021/11/02 05:49:15;;;;;;;5.43;2.25;;;;;;;8.31;86.61;99826.13;4977944;28;20084;-52
2021/11/02 05:52:17;;;;;;;4.82;1.95;;;;;;;8.30;86.88;99826.41;4974825;28;20497;-51
2021/11/02 05:55:15;;;;;;;4.30;2.20;;;;;;;8.32;86.61;99819.63;4987523;28;20055;-52
2021/11/02 05:57:40;;;;;;;6.43;2.70;;;;;;;8.35;86.35;99822.88;4990811;28;20081;-51
2021/11/02 06:00:47;;;;;;;4.70;2.08;;;;;;;8.34;86.46;99816.59;4988559;28;20509;-49
2021/11/02 06:03:29;;;;;;;5.07;2.20;;;;;;;8.34;86.53;99816.59;4985238;28;20066;-50
2021/11/02 06:29:00;;;;;;;5.22;2.40;;;;;;;8.26;86.29;99811.78;4916727;29;20056;-52
2021/11/02 06:31:33;;;;;;;7.30;2.80;;;;;;;8.26;86.40;99814.47;4916653;29;20049;-55
2021/11/02 06:47:53;;;;;;;8.20;2.60;;;;;;;8.21;86.93;99825.34;4913781;29;20386;-52
2021/11/02 07:17:09;;;;;;;7.93;2.35;;;;;;;8.14;88.64;99838.41;4994624;28;20420;-51
2021/11/02 07:23:08;;;;;;;;;;;;;;;8.21;88.51;99842.44;4995007;28;20057;-50
2021/11/02 08:47:06;;;;;;;;;;;;;;;8.66;91.02;99864.28;4992709;28;20058;-49
2021/11/02 08:49:39;;;;;;;19.35;5.18;;;;;;;8.70;92.17;99852.56;4993369;28;19941;-51
2021/11/02 08:52:07;;;;;;;14.95;3.97;;;;;;;8.87;93.76;99863.06;5004313;28;20030;-51
2021/11/02 08:54:36;;;;;;;8.20;3.13;;;;;;;8.89;92.43;99857.38;4992740;28;20039;-48
2021/11/02 08:57:04;;;;;;;5.88;2.70;;;;;;;8.89;92.87;99857.38;4992830;28;20049;-52
2021/11/02 08:59:34;;;;;;;7.53;2.80;;;;;;;8.86;92.36;99856.03;4991285;28;20409;-51
2021/11/02 09:02:07;;;;;;;8.30;3.40;;;;;;;8.90;93.05;99862.53;4991822;28;20038;-50
2021/11/02 09:04:41;;;;;;;8.00;3.25;;;;;;;8.90;93.54;99862.53;4992640;28;20050;-52
2021/11/02 09:07:09;;;;;;;6.55;2.75;;;;;;;8.88;93.00;99862.00;5007890;28;20043;-52
2021/11/02 09:09:40;;;;;;;6.43;2.97;;;;;;;8.84;92.98;99860.94;4991820;28;20061;-47
2021/11/02 09:12:08;;;;;;;6.05;2.60;;;;;;;8.84;93.62;99857.41;4991739;28;20046;-53
2021/11/02 09:14:38;;;;;;;7.88;2.90;;;;;;;8.83;93.37;99858.50;4986063;28;20041;-50
2021/11/02 09:17:08;;;;;;;9.52;3.90;;;;;;;8.87;94.46;99854.94;4991312;28;20512;-50
2021/11/02 09:19:37;;;;;;;6.93;3.10;;;;;;;8.88;94.05;99864.72;4991782;28;20497;-50
2021/11/02 09:22:08;;;;;;;6.35;3.13;;;;;;;8.89;94.14;99868.25;4992016;28;20053;-49
2021/11/02 09:24:35;;;;;;;4.72;2.78;;;;;;;8.84;94.22;99866.38;4992317;28;20054;-50
2021/11/02 09:27:03;;;;;;;5.55;3.10;;;;;;;8.84;94.34;99863.66;5006879;28;20400;-50
2021/11/02 09:29:31;;;;;;;8.68;3.30;;;;;;;8.86;94.62;99863.38;4991801;28;20105;-51
2021/11/02 09:31:58;;;;;;;7.63;3.35;;;;;;;8.93;94.83;99866.59;5006996;28;20042;-50
2021/11/02 09:34:28;;;;;;;8.15;3.40;;;;;;;9.00;95.34;99869.00;4992678;28;20046;-50
2021/11/02 09:37:15;;;;;;;10.75;3.78;;;;;;;9.05;95.86;99868.97;4992104;28;20505;-53
2021/11/02 09:39:48;;;;;;;16.45;4.88;;;;;;;9.16;98.46;99862.38;4987264;28;20057;-50
2021/11/02 09:42:34;;;;;;;12.15;3.90;;;;;;;9.18;97.05;99871.06;4991631;28;20057;-51
2021/11/02 09:45:08;;;;;;;;;;;;;;;9.26;100.00;99861.47;4989007;28;20498;-49
2021/11/02 09:47:37;;;;;;;;;;;;;;;9.25;98.77;99866.13;4975542;28;19972;-51
2021/11/02 09:50:21;;;;;;;8.13;3.70;;;;;;;9.17;96.07;99862.09;4992101;28;20292;-51
2021/11/02 09:52:58;;;;;;;6.97;3.55;;;;;;;9.12;95.74;99864.03;4992395;28;20039;-50
2021/11/02 09:55:33;;;;;;;5.70;3.10;;;;;;;9.09;95.91;99867.31;4987592;28;20057;-53
2021/11/02 09:58:35;;;;;;;8.55;3.50;;;;;;;9.10;95.94;99860.78;4991210;28;20217;-51
2021/11/02 10:01:15;;;;;;;10.65;3.70;;;;;;;9.17;96.34;99866.72;4987653;28;20391;-51
2021/11/02 10:04:06;;;;;;;5.63;3.10;;;;;;;9.19;95.88;99864.53;5000257;28;20042;-48
2021/11/02 10:07:08;;;;;;;6.80;3.22;;;;;;;9.21;95.68;99862.31;4981263;28;20056;-48
2021/11/02 10:10:10;;;;;;;8.05;3.20;;;;;;;9.24;95.38;99855.53;4991900;28;20077;-49
2021/11/02 10:12:56;;;;;;;7.03;3.60;;;;;;;9.25;95.26;99866.13;4992456;28;20053;-50
2021/11/02 10:15:42;;;;;;;7.70;3.28;;;;;;;9.27;94.91;99861.22;4991849;28;20041;-48
2021/11/02 10:18:40;;;;;;;9.57;3.58;;;;;;;9.28;95.43;99862.81;4990839;28;20046;-52
2021/11/02 10:21:20;;;;;;;6.03;3.42;;;;;;;9.30;95.25;99865.25;4991083;28;20592;-49
2021/11/02 10:23:56;;;;;;;8.73;3.65;;;;;;;9.31;95.03;99867.72;4992148;28;20494;-51
2021/11/02 10:26:44;;;;;;;12.05;3.80;;;;;;;9.35;95.49;99860.59;4990864;28;20058;-49
2021/11/02 10:29:26;;;;;;;7.78;3.38;;;;;;;9.36;94.83;99859.50;4993084;28;20054;-50
2021/11/02 10:32:13;;;;;;;7.13;3.25;;;;;;;9.35;94.62;99860.59;4982732;28;20046;-50
2021/11/02 10:34:59;;;;;;;8.07;3.67;;;;;;;9.38;94.78;99856.53;4995334;28;20393;-48
2021/11/02 10:38:10;;;;;;;6.10;3.60;;;;;;;9.43;94.88;99861.09;4995322;28;20042;-51
2021/11/02 10:40:51;;;;;;;13.48;4.63;;;;;;;9.51;96.39;99858.56;4988059;28;20122;-50
2021/11/02 10:43:45;;;;;;;10.40;3.92;;;;;;;9.66;99.28;99856.81;4993624;28;20493;-52
2021/11/02 10:46:14;;;;;;;8.68;4.05;;;;;;;9.58;96.34;99861.78;4993155;28;20054;-55
2021/11/02 10:48:43;;;;;;;8.98;3.72;;;;;;;9.55;95.41;99867.00;4994181;28;20104;-52
2021/11/02 10:51:36;;;;;;;7.15;3.30;;;;;;;9.43;94.57;99852.94;4995124;28;20497;-52
2021/11/02 10:54:15;;;;;;;9.77;3.80;;;;;;;9.38;94.76;99856.53;4991881;28;20034;-53
2021/11/02 10:57:02;;;;;;;8.57;3.70;;;;;;;9.36;94.65;99862.22;4994982;28;20065;-51
2021/11/02 10:59:32;;;;;;;11.80;3.85;;;;;;;9.35;94.80;99847.00;5009964;28;20042;-49
2021/11/02 11:02:00;;;;;;;8.27;4.07;;;;;;;9.35;94.53;99849.72;4994912;28;20058;-48
2021/11/02 11:04:33;;;;;;;7.15;3.88;;;;;;;9.37;94.59;99852.16;4994072;28;20046;-49
2021/11/02 11:07:01;;;;;;;11.88;4.40;;;;;;;9.49;95.64;99849.88;4993782;28;20042;-50
2021/11/02 11:09:30;;;;;;;11.73;4.93;;;;;;;9.59;98.02;99855.22;4994379;28;20137;-49
2021/11/02 11:12:00;;;;;;;9.95;4.30;;;;;;;9.59;96.74;99851.72;4994654;28;20043;-49
2021/11/02 11:14:32;;;;;;;9.80;4.25;;;;;;;9.62;97.23;99853.03;4994750;28;20445;-50
2021/11/02 11:17:00;;;;;;;9.77;4.10;;;;;;;9.61;97.24;99854.97;4993250;28;20047;-48
2021/11/02 11:19:29;;;;;;;8.30;4.10;;;;;;;9.68;98.23;99855.44;4992756;28;20060;-49
2021/11/02 11:21:59;;;;;;;8.93;3.92;;;;;;;9.63;97.66;99858.22;5009427;28;20061;-48
2021/11/02 11:24:55;;;;;;;7.70;3.70;;;;;;;9.57;97.01;99849.28;4986169;28;20051;-49
2021/11/02 11:27:23;;;;;;;7.72;3.95;;;;;;;9.55;96.69;99850.69;4929920;29;20054;-49
2021/11/02 11:30:00;;;;;;;8.50;3.97;;;;;;;9.55;96.84;99850.69;4918000;29;20047;-52
2021/11/02 11:32:30;;;;;;;7.95;3.83;;;;;;;9.52;96.41;99843.88;4916973;29;20079;-50
2021/11/02 11:34:59;;;;;;;7.28;3.40;;;;;;;9.51;96.59;99849.63;4933914;29;20044;-49
2021/11/02 11:37:28;;;;;;;10.07;4.00;;;;;;;9.53;97.22;99848.22;4915226;29;20048;-53
2021/11/02 11:40:00;;;;;;;8.90;4.00;;;;;;;9.55;97.03;99842.53;4930250;29;20063;-51
2021/11/02 11:42:31;;;;;;;7.28;3.65;;;;;;;9.58;96.81;99834.59;4933507;29;20052;-56
2021/11/02 11:45:11;;;;;;;7.82;3.92;;;;;;;9.62;97.22;99851.16;4933542;29;20496;-53
2021/11/02 11:47:39;;;;;;;6.90;3.88;;;;;;;9.63;96.39;99838.38;4920632;29;20419;-51
2021/11/02 11:50:28;;;;;;;7.75;4.00;;;;;;;9.64;96.10;99834.53;4933412;29;20542;-51
2021/11/02 11:53:04;;;;;;;9.50;3.90;;;;;;;9.64;96.18;99835.34;4922508;29;20088;-51
2021/11/02 11:55:34;;;;;;;7.40;3.80;;;;;;;9.66;96.18;99830.44;4933389;29;20055;-53
2021/11/02 11:58:09;;;;;;;8.85;3.90;;;;;;;9.70;96.52;99836.13;4918168;29;20052;-53
2021/11/02 12:00:39;;;;;;;6.95;3.55;;;;;;;9.70;96.11;99822.53;4933384;29;20547;-53
2021/11/02 12:03:16;;;;;;;6.65;3.42;;;;;;;9.71;95.83;99816.78;4933221;29;20059;-51
2021/11/02 12:06:00;;;;;;;8.60;3.90;;;;;;;9.72;95.49;99818.41;4993286;28;20555;-49
2021/11/02 12:08:38;;;;;;;7.38;4.03;;;;;;;9.73;95.68;99809.16;4991962;28;20038;-47
2021/11/02 12:11:06;;;;;;;9.18;4.68;;;;;;;9.73;95.81;99798.28;5005481;28;20046;-46
2021/11/02 12:13:40;;;;;;;7.82;3.58;;;;;;;9.76;95.17;99800.41;4993678;28;20058;-52
2021/11/02 12:16:24;;;;;;;7.63;3.88;;;;;;;9.79;95.26;99801.78;4992648;28;20041;-51
2021/11/02 12:19:01;;;;;;;7.55;3.40;;;;;;;9.79;95.30;99799.84;4985089;28;20049;-50
2021/11/02 12:21:31;;;;;;;7.90;3.40;;;;;;;9.85;94.86;99791.63;4993413;28;20050;-50
2021/11/02 12:24:10;;;;;;;6.75;3.20;;;;;;;9.82;94.91;99796.53;4993149;28;20581;-51
2021/11/02 12:26:40;;;;;;;7.53;3.55;;;;;;;9.85;94.83;99794.34;4993489;28;20042;-50
2021/11/02 12:29:15;;;;;;;6.68;3.28;;;;;;;9.85;94.49;99795.16;4992866;28;20042;-50
2021/11/02 12:31:46;;;;;;;7.57;3.28;;;;;;;9.86;94.21;99790.53;4991964;28;20129;-50
2021/11/02 12:34:15;;;;;;;6.05;3.42;;;;;;;9.87;94.02;99794.88;4993186;28;20118;-45
2021/11/02 12:36:48;;;;;;;7.97;3.22;;;;;;;9.86;93.71;99785.06;4993718;28;20169;-50
2021/11/02 12:39:19;;;;;;;8.75;3.70;;;;;;;9.86;93.29;99788.63;4988063;28;20042;-51
2021/11/02 12:41:52;;;;;;;5.88;3.30;;;;;;;9.83;93.36;99786.47;4991135;28;20516;-50
2021/11/02 12:44:24;;;;;;;6.32;3.30;;;;;;;9.80;93.70;99792.50;4993241;28;20088;-50
2021/11/02 12:46:52;;;;;;;6.93;3.60;;;;;;;9.79;93.29;99796.31;4992795;28;20226;-53
2021/11/02 12:49:32;;;;;;;8.65;3.38;;;;;;;9.76;93.88;99792.25;4993016;28;20044;-50
2021/11/02 12:52:03;;;;;;;8.77;4.15;;;;;;;9.77;94.49;99793.88;5007031;28;20065;-48
2021/11/02 12:54:33;;;;;;;7.88;3.45;;;;;;;9.73;95.00;99797.47;4992807;28;20042;-49
2021/11/02 12:57:05;;;;;;;8.63;3.60;;;;;;;9.71;95.24;99796.94;4992960;28;20569;-50
2021/11/02 12:59:36;;;;;;;6.60;3.30;;;;;;;9.70;95.39;99798.03;4991563;28;20046;-50
2021/11/02 13:02:35;;;;;;;7.75;3.58;;;;;;;9.73;95.89;99801.00;4991052;28;20464;-49
2021/11/02 13:05:17;;;;;;;16.60;6.68;;;;;;;9.80;96.10;99797.94;4981097;28;20104;-49
2021/11/02 13:08:12;;;;;;;11.10;5.47;;;;;;;9.81;95.81;99800.38;4990696;28;20401;-50
2021/11/02 13:10:41;;;;;;;;;;;;;;;9.82;95.81;99793.03;4992769;28;20540;-47
2021/11/02 13:13:17;;;;;;;7.32;3.67;;;;;;;9.80;95.88;99793.28;4991509;28;19929;-48
2021/11/02 13:15:51;;;;;;;8.50;3.67;;;;;;;9.77;96.01;99788.44;4991195;28;20049;-49
2021/11/02 13:18:39;;;;;;;8.45;3.58;;;;;;;9.78;96.19;99791.97;4991610;28;20049;-50
2021/11/02 13:21:19;;;;;;;5.38;3.17;;;;;;;9.76;96.26;99786.81;4992205;28;20050;-49
2021/11/02 13:24:00;;;;;;;12.30;5.30;;;;;;;9.74;96.47;99782.75;4991349;28;20054;-49
2021/11/02 13:26:29;;;;;;;17.10;6.95;;;;;;;9.76;96.35;99789.53;4992194;28;20042;-50
2021/11/02 13:29:13;;;;;;;12.63;5.82;;;;;;;9.81;96.43;99789.50;4992523;28;20042;-49
2021/11/02 13:31:42;;;;;;;8.35;3.80;;;;;;;9.82;96.14;99802.00;4990365;28;20492;-49
2021/11/02 13:34:17;;;;;;;27.45;10.98;;;;;;;9.82;96.02;99795.75;4992446;28;20449;-49
2021/11/02 13:36:45;;;;;;;17.63;7.22;;;;;;;9.81;96.12;99800.38;4992012;28;20053;-49
2021/11/02 13:39:14;;;;;;;20.55;9.82;;;;;;;9.86;97.34;99795.97;4991250;28;20049;-49
2021/11/02 13:41:50;;;;;;;24.60;9.80;;;;;;;9.92;99.20;99794.81;4992270;28;20035;-50
2021/11/02 13:44:19;;;;;;;30.65;11.82;;;;;;;9.88;98.22;99799.22;4991922;28;20046;-51
2021/11/02 13:46:48;;;;;;;11.35;4.93;;;;;;;9.85;97.40;99802.50;4991983;28;20516;-50
2021/11/02 13:49:18;;;;;;;7.10;3.35;;;;;;;9.84;97.20;99798.16;4992425;28;20046;-52
2021/11/02 13:51:47;;;;;;;18.02;7.93;;;;;;;9.81;97.10;99805.81;4991866;28;20118;-52
2021/11/02 13:54:15;;;;;;;16.92;7.65;;;;;;;9.82;97.05;99804.72;4991853;28;20046;-50
2021/11/02 13:56:45;;;;;;;11.50;5.38;;;;;;;9.84;96.87;99804.44;4992340;28;20038;-52
2021/11/02 13:59:14;;;;;;;12.55;5.43;;;;;;;9.79;95.48;99805.28;4992232;28;20426;-51
2021/11/02 14:01:42;;;;;;;6.07;3.08;;;;;;;9.79;95.08;99796.31;4991896;28;20072;-50
2021/11/02 14:04:27;;;;;;;3.90;2.47;;;;;;;9.81;95.13;99800.38;4993516;28;20050;-51
2021/11/02 14:07:15;;;;;;;9.85;3.35;;;;;;;9.86;95.58;99799.53;5010531;28;20042;-53
2021/11/02 14:09:46;;;;;;;9.20;3.65;;;;;;;9.87;95.25;99800.31;5010998;28;20055;-51
2021/11/02 14:12:25;;;;;;;15.63;6.68;;;;;;;9.92;95.52;99794.81;5010816;28;20042;-52
2021/11/02 14:14:54;;;;;;;10.45;4.63;;;;;;;9.96;95.27;99809.47;4993865;28;20097;-51
2021/11/02 14:17:23;;;;;;;8.07;3.20;;;;;;;9.98;94.88;99808.09;4993868;28;20448;-51
2021/11/02 14:19:56;;;;;;;5.32;2.55;;;;;;;9.90;95.17;99810.63;4991967;28;20408;-49
2021/11/02 14:22:53;;;;;;;4.25;2.65;;;;;;;9.85;94.90;99810.69;4995874;28;20146;-51
2021/11/02 14:25:35;;;;;;;5.90;2.53;;;;;;;9.82;94.94;99810.16;4931402;29;20052;-52
2021/11/02 14:28:04;;;;;;;6.40;2.85;;;;;;;9.80;94.62;99815.06;4935443;29;20040;-51
2021/11/02 14:30:32;;;;;;;8.73;4.30;;;;;;;9.82;94.23;99807.44;4927821;29;20635;-55
2021/11/02 14:33:20;;;;;;;16.35;8.43;;;;;;;9.91;95.06;99809.50;4933072;29;20079;-51
2021/11/02 14:35:55;;;;;;;15.40;5.82;;;;;;;9.92;94.77;99819.31;4934360;29;20507;-52
2021/11/02 14:38:42;;;;;;;8.98;3.80;;;;;;;9.90;94.14;99818.78;4919332;29;20060;-51
2021/11/02 14:41:34;;;;;;;9.95;4.65;;;;;;;9.91;94.79;99823.09;4935414;29;20048;-52
2021/11/02 14:44:16;;;;;;;9.48;3.90;;;;;;;9.87;94.51;99824.81;4935335;29;20048;-54
2021/11/02 14:46:48;;;;;;;6.88;3.72;;;;;;;9.88;94.71;99823.69;4933609;29;20055;-51
2021/11/02 14:49:28;;;;;;;4.30;2.97;;;;;;;9.86;94.54;99823.16;4918862;29;20050;-52
2021/11/02 14:52:06;;;;;;;6.10;3.17;;;;;;;9.80;94.52;99820.50;4935188;29;20040;-51
2021/11/02 14:54:39;;;;;;;7.35;3.40;;;;;;;9.79;94.50;99824.34;4935477;29;20418;-51
2021/11/02 14:57:24;;;;;;;6.68;4.05;;;;;;;9.78;94.39;99819.97;4923841;29;20052;-50
2021/11/02 15:00:00;;;;;;;5.13;3.60;;;;;;;9.76;94.41;99821.34;4935151;29;20044;-50
2021/11/02 15:02:31;;;;;;;7.95;4.18;;;;;;;9.78;94.47;99822.69;4980902;28;20520;-50
2021/11/02 15:05:05;;;;;;;11.60;5.35;;;;;;;9.82;94.42;99822.94;4994785;28;20058;-49
2021/11/02 15:07:34;;;;;;;9.68;4.10;;;;;;;9.82;94.24;99823.75;4994512;28;20130;-47
2021/11/02 15:10:07;;;;;;;6.40;4.00;;;;;;;9.82;94.09;99831.09;4994720;28;20046;-50
2021/11/02 15:12:36;;;;;;;24.35;11.48;;;;;;;9.85;94.01;99833.25;4994776;28;20042;-51
2021/11/02 15:15:07;;;;;;;9.95;4.85;;;;;;;9.86;94.10;99831.34;4994254;28;20062;-55
2021/11/02 15:17:35;;;;;;;8.43;5.22;;;;;;;9.85;93.88;99835.16;4994165;28;20034;-52
2021/11/02 15:20:25;;;;;;;7.45;4.57;;;;;;;9.82;93.52;99828.38;4994640;28;20042;-50
2021/11/02 15:22:56;;;;;;;8.20;5.00;;;;;;;9.80;93.45;99831.38;4994786;28;20050;-51
2021/11/02 15:25:24;;;;;;;6.95;4.28;;;;;;;9.79;93.20;99837.94;4994947;28;20057;-52
2021/11/02 15:28:03;;;;;;;5.53;3.92;;;;;;;9.79;92.88;99832.50;4994468;28;20125;-51
2021/11/02 15:30:32;;;;;;;16.15;7.47;;;;;;;9.79;92.90;99828.97;4994439;28;20509;-51
2021/11/02 15:32:59;;;;;;;9.80;4.78;;;;;;;9.79;92.33;99828.97;4993858;28;20043;-51
2021/11/02 15:35:27;;;;;;;8.30;4.78;;;;;;;9.76;92.14;99841.22;4994671;28;20038;-51
2021/11/02 15:37:57;;;;;;;6.78;4.40;;;;;;;9.76;91.98;99840.41;4994089;28;20139;-54
2021/11/02 15:40:36;;;;;;;7.43;4.55;;;;;;;9.74;92.01;99840.72;4994243;28;20515;-48
2021/11/02 15:43:07;;;;;;;5.85;3.97;;;;;;;9.73;92.02;99841.78;4994281;28;20089;-54
2021/11/02 15:45:43;;;;;;;8.63;4.78;;;;;;;9.74;92.18;99838.00;4993637;28;20050;-51
2021/11/02 15:48:28;;;;;;;9.50;5.18;;;;;;;9.76;91.87;99845.84;4992347;28;20409;-48
2021/11/02 15:50:56;;;;;;;7.18;4.93;;;;;;;9.70;91.37;99853.25;4994159;28;20052;-51
2021/11/02 15:53:27;;;;;;;6.72;4.47;;;;;;;9.71;91.65;99848.63;4994073;28;20046;-50
2021/11/02 15:55:59;;;;;;;6.80;4.80;;;;;;;9.70;91.43;99853.25;4991312;28;20038;-50
2021/11/02 15:58:30;;;;;;;7.18;5.22;;;;;;;9.69;91.15;99862.53;4993773;28;20041;-50
2021/11/02 16:00:57;;;;;;;7.90;5.10;;;;;;;9.69;91.29;99857.09;4993556;28;20066;-52
2021/11/02 16:03:35;;;;;;;10.30;5.70;;;;;;;9.69;91.43;99857.09;4301250;28;10000788;-52
2021/11/02 16:06:06;;;;;;;8.90;6.03;;;;;;;9.69;91.24;99865.25;4992093;28;20042;-51
2021/11/02 16:08:35;;;;;;;9.40;6.15;;;;;;;9.65;91.10;99866.91;4991028;28;20042;-52
2021/11/02 16:11:05;;;;;;;12.60;7.15;;;;;;;9.67;91.36;99867.44;4991333;28;20436;-49
2021/11/02 16:13:33;;;;;;;9.38;6.15;;;;;;;9.67;91.00;99869.31;4991449;28;20038;-50
2021/11/02 16:16:01;;;;;;;9.38;6.30;;;;;;;9.65;90.95;99866.91;4990535;28;20045;-48
2021/11/02 16:18:34;;;;;;;12.00;6.80;;;;;;;9.61;90.71;99865.84;4989694;28;20382;-49
2021/11/02 16:21:04;;;;;;;12.05;7.05;;;;;;;9.59;91.04;99868.03;4990996;28;20046;-50
2021/11/02 16:23:47;;;;;;;8.82;6.55;;;;;;;9.60;91.23;99875.09;4991306;28;20054;-49
2021/11/02 16:26:22;;;;;;;11.15;7.35;;;;;;;9.59;90.96;99863.38;4990623;28;20038;-53
2021/11/02 16:28:51;;;;;;;10.13;6.78;;;;;;;9.58;90.98;99877.28;4995674;28;20061;-50
2021/11/02 16:31:29;;;;;;;12.10;7.32;;;;;;;9.59;91.01;99873.47;4990531;28;20042;-53
2021/11/02 16:33:58;;;;;;;8.95;6.65;;;;;;;9.59;91.15;99871.56;4990925;28;20046;-51
2021/11/02 16:36:32;;;;;;;12.55;7.47;;;;;;;9.61;91.17;99871.28;4991354;28;20050;-49
2021/11/02 16:39:00;;;;;;;15.45;8.48;;;;;;;9.60;91.35;99870.47;5005348;28;20061;-53
2021/11/02 16:41:30;;;;;;;13.63;8.82;;;;;;;9.60;91.20;99870.47;4990539;28;20050;-52
2021/11/02 16:44:08;;;;;;;14.90;9.25;;;;;;;9.59;91.43;99870.75;4991019;28;20042;-52
2021/11/02 16:46:38;;;;;;;14.70;9.10;;;;;;;9.60;91.58;99875.91;4990179;28;20878;-54
2021/11/02 16:49:14;;;;;;;13.18;9.00;;;;;;;9.57;91.41;99881.09;4990426;28;20038;-52
2021/11/02 16:51:52;;;;;;;16.45;9.70;;;;;;;9.57;91.92;99881.09;4990504;28;20234;-54
2021/11/02 16:54:38;;;;;;;10.55;8.23;;;;;;;9.55;91.77;99873.25;4990807;28;20052;-53
2021/11/02 16:57:16;;;;;;;12.15;8.70;;;;;;;9.55;91.66;99886.03;4990959;28;20046;-53
2021/11/02 17:00:19;;;;;;;11.70;7.90;;;;;;;9.53;91.79;99897.19;4989965;28;20418;-55
2021/11/02 17:02:48;;;;;;;15.52;9.75;;;;;;;9.54;91.95;99893.34;4922265;29;20054;-52
2021/11/02 17:05:17;;;;;;;15.25;10.05;;;;;;;9.54;91.62;99893.34;4930587;29;20195;-53